createdAt,value
2022-11-29T00:02:04.301Z,101128.81
2022-11-29T00:07:07.133Z,101128.48
2022-11-29T00:12:27.212Z,101133.45
2022-11-29T00:17:56.443Z,101132.38
2022-11-29T00:23:07.750Z,101133.06
2022-11-29T00:28:22.702Z,101131.38
2022-11-29T00:33:28.284Z,101136.37
2022-11-29T00:38:32.980Z,101135.98
2022-11-29T00:43:36.021Z,101139.54
2022-11-29T00:48:39.330Z,101141.02
2022-11-29T00:53:46.819Z,101142.52
2022-11-29T00:58:54.653Z,101140.70
2022-11-29T01:04:08.168Z,101136.64
2022-11-29T01:09:19.782Z,101136.73
2022-11-29T01:14:27.728Z,101140.81
2022-11-29T01:19:35.306Z,101137.89
2022-11-29T01:24:45.993Z,101133.52
2022-11-29T01:30:27.565Z,101128.27
2022-11-29T01:35:30.333Z,101133.41
2022-11-29T01:40:36.247Z,101132.64
2022-11-29T01:45:40.969Z,101127.88
2022-11-29T01:50:43.757Z,101128.05
2022-11-29T01:55:51.155Z,101124.42
2022-11-29T02:00:54.020Z,101126.63
2022-11-29T02:05:57.043Z,101125.02
2022-11-29T02:11:06.408Z,101126.22
2022-11-29T02:16:23.858Z,101122.73
2022-11-29T02:22:09.043Z,101119.75
2022-11-29T02:27:49.837Z,101122.33
2022-11-29T02:33:24.494Z,101123.87
2022-11-29T02:38:37.434Z,101125.73
2022-11-29T02:44:15.434Z,101123.70
2022-11-29T02:49:50.585Z,101125.95
2022-11-29T02:55:09.880Z,101125.38
2022-11-29T03:00:21.561Z,101131.17
2022-11-29T03:05:48.076Z,101135.83
2022-11-29T03:10:57.153Z,101133.36
2022-11-29T03:16:15.429Z,101137.82
2022-11-29T03:21:46.029Z,101136.73
2022-11-29T03:26:59.559Z,101134.97
2022-11-29T03:32:07.329Z,101136.55
2022-11-29T03:37:21.772Z,101139.13
2022-11-29T03:42:30.364Z,101135.80
2022-11-29T03:47:48.815Z,101140.48
2022-11-29T03:53:00.134Z,101140.13
2022-11-29T03:58:45.555Z,101142.88
2022-11-29T04:04:11.574Z,101146.38
2022-11-29T04:10:05.013Z,101151.71
2022-11-29T04:15:23.939Z,101153.75
2022-11-29T04:20:29.022Z,101152.94
2022-11-29T04:26:10.245Z,101155.17
2022-11-29T04:31:38.283Z,101155.83
2022-11-29T04:37:13.986Z,101163.45
2022-11-29T04:42:58.915Z,101167.09
2022-11-29T04:48:29.753Z,101167.78
2022-11-29T04:53:50.185Z,101167.65
2022-11-29T04:59:22.453Z,101167.85
2022-11-29T05:05:14.397Z,101174.72
2022-11-29T05:10:42.390Z,101175.97
2022-11-29T05:16:12.018Z,101177.16
2022-11-29T05:21:56.591Z,101178.91
2022-11-29T05:27:53.238Z,101183.46
2022-11-29T05:33:26.034Z,101184.86
2022-11-29T05:39:16.027Z,101187.77
2022-11-29T05:44:32.848Z,101184.68
2022-11-29T05:50:01.503Z,101183.43
2022-11-29T05:55:29.664Z,101188.11
2022-11-29T06:00:58.778Z,101188.16
2022-11-29T06:06:10.564Z,101190.38
2022-11-29T06:11:21.844Z,101195.39
2022-11-29T06:17:15.578Z,101198.39
2022-11-29T06:22:33.345Z,101201.85
2022-11-29T06:27:51.061Z,101208.39
2022-11-29T06:33:29.739Z,101216.23
2022-11-29T06:38:33.302Z,101223.91
2022-11-29T06:43:36.424Z,101230.30
2022-11-29T06:48:43.790Z,101238.10
2022-11-29T06:53:49.360Z,101241.81
2022-11-29T06:59:03.088Z,101242.78
2022-11-29T07:04:15.011Z,101243.18
2022-11-29T07:09:21.022Z,101240.57
2022-11-29T07:14:25.885Z,101244.77
2022-11-29T07:19:46.345Z,101245.02
2022-11-29T07:24:49.600Z,101247.80
2022-11-29T07:30:05.937Z,101246.63
2022-11-29T07:35:43.767Z,101249.29
2022-11-29T07:41:29.710Z,101254.64
2022-11-29T07:46:34.104Z,101260.17
2022-11-29T07:51:42.204Z,101262.49
2022-11-29T07:56:49.521Z,101262.69
2022-11-29T08:01:54.325Z,101259.96
2022-11-29T08:07:04.979Z,101265.74
2022-11-29T08:12:11.209Z,101264.59
2022-11-29T08:17:17.011Z,101265.08
2022-11-29T08:22:22.641Z,101270.66
2022-11-29T08:27:26.354Z,101274.19
2022-11-29T08:32:29.739Z,101274.52
2022-11-29T08:37:33.356Z,101279.88
2022-11-29T08:42:37.150Z,101280.98
2022-11-29T08:47:42.427Z,101283.26
2022-11-29T08:53:06.232Z,101282.00
2022-11-29T08:58:13.107Z,101284.40
2022-11-29T09:03:34.819Z,101284.48
2022-11-29T09:08:39.418Z,101291.80
2022-11-29T09:13:46.659Z,101288.39
2022-11-29T09:18:52.053Z,101288.23
2022-11-29T09:23:59.428Z,101285.11
2022-11-29T09:29:05.110Z,101284.55
2022-11-29T09:34:17.364Z,101280.05
2022-11-29T09:39:22.457Z,101281.42
2022-11-29T09:44:34.923Z,101276.35
2022-11-29T09:50:13.180Z,101279.13
2022-11-29T09:55:37.053Z,101275.23
2022-11-29T10:00:51.688Z,101273.48
2022-11-29T10:06:01.233Z,101278.19
2022-11-29T10:11:24.650Z,101277.81
2022-11-29T10:16:48.807Z,101278.45
2022-11-29T10:22:04.880Z,101280.38
2022-11-29T10:27:24.405Z,101285.30
2022-11-29T10:32:32.499Z,101280.35
2022-11-29T10:37:36.045Z,101280.59
2022-11-29T10:42:54.773Z,101283.23
2022-11-29T10:48:08.101Z,101291.89
2022-11-29T10:53:39.492Z,101291.05
2022-11-29T10:59:05.289Z,101295.61
2022-11-29T11:04:22.992Z,101298.01
2022-11-29T11:09:36.705Z,101297.63
2022-11-29T11:14:40.929Z,101300.73
2022-11-29T11:19:54.948Z,101301.11
2022-11-29T11:25:25.522Z,101306.23
2022-11-29T11:30:29.450Z,101306.16
2022-11-29T11:35:32.405Z,101304.06
2022-11-29T11:40:35.239Z,101308.02
2022-11-29T11:45:38.880Z,101305.07
2022-11-29T11:51:02.224Z,101305.11
2022-11-29T11:56:08.759Z,101302.61
2022-11-29T12:01:25.058Z,101306.29
2022-11-29T12:06:49.958Z,101309.39
2022-11-29T12:12:19.834Z,101310.92
2022-11-29T12:17:32.008Z,101314.06
2022-11-29T12:22:48.621Z,101308.48
2022-11-29T12:27:51.935Z,101312.09
2022-11-29T12:33:07.577Z,101318.17
2022-11-29T12:38:31.491Z,101317.87
2022-11-29T12:43:52.399Z,101315.67
2022-11-29T12:49:18.892Z,101320.45
2022-11-29T12:54:59.977Z,101316.65
2022-11-29T13:00:06.299Z,101314.49
2022-11-29T13:05:12.051Z,101316.83
2022-11-29T13:10:39.142Z,101322.06
2022-11-29T13:15:54.794Z,101324.98
2022-11-29T13:21:10.539Z,101333.21
2022-11-29T13:26:14.932Z,101335.70
2022-11-29T13:31:20.618Z,101344.11
2022-11-29T13:36:45.717Z,101347.56
2022-11-29T13:42:01.123Z,101350.48
2022-11-29T13:47:15.974Z,101342.98
2022-11-29T13:52:33.723Z,101348.56
2022-11-29T13:58:16.774Z,101347.94
2022-11-29T14:03:23.463Z,101355.47
2022-11-29T14:08:37.944Z,101358.95
2022-11-29T14:14:01.399Z,101361.36
2022-11-29T14:19:10.260Z,101360.05
2022-11-29T14:24:38.012Z,101354.74
2022-11-29T14:29:49.922Z,101361.78
2022-11-29T14:35:08.067Z,101364.83
2022-11-29T14:40:43.169Z,101366.98
2022-11-29T14:45:46.392Z,101370.08
2022-11-29T14:50:49.193Z,101369.67
2022-11-29T14:55:51.970Z,101370.45
2022-11-29T15:01:02.751Z,101370.84
2022-11-29T15:06:15.256Z,101378.11
2022-11-29T15:11:43.369Z,101377.23
2022-11-29T15:17:01.920Z,101376.02
2022-11-29T15:22:18.648Z,101380.85
2022-11-29T15:27:23.085Z,101376.01
2022-11-29T15:32:32.680Z,101372.44
2022-11-29T15:37:36.672Z,101372.11
2022-11-29T15:42:55.241Z,101383.45
2022-11-29T15:48:25.971Z,101389.21
2022-11-29T15:53:41.497Z,101394.71
2022-11-29T15:58:46.342Z,101393.23
2022-11-29T16:03:53.683Z,101395.68
2022-11-29T16:08:56.607Z,101398.80
2022-11-29T16:14:28.158Z,101400.68
2022-11-29T16:19:36.233Z,101402.83
2022-11-29T16:25:06.805Z,101405.70
2022-11-29T16:30:24.658Z,101407.63
2022-11-29T16:35:35.001Z,101414.00
2022-11-29T16:40:37.753Z,101416.61
2022-11-29T16:45:42.383Z,101417.96
2022-11-29T16:50:46.208Z,101422.23
2022-11-29T16:55:49.820Z,101422.85
2022-11-29T17:00:52.685Z,101428.25
2022-11-29T17:05:55.642Z,101423.63
2022-11-29T17:10:58.382Z,101425.48
2022-11-29T17:16:01.117Z,101427.17
2022-11-29T17:21:04.213Z,101426.77
2022-11-29T17:26:07.751Z,101429.60
2022-11-29T17:31:19.742Z,101436.08
2022-11-29T17:36:22.539Z,101436.47
2022-11-29T17:41:27.002Z,101439.57
2022-11-29T17:46:35.237Z,101441.11
2022-11-29T17:51:55.936Z,101441.33
2022-11-29T17:57:00.905Z,101441.15
2022-11-29T18:02:04.284Z,101444.52
2022-11-29T18:07:06.972Z,101449.33
2022-11-29T18:12:09.731Z,101451.34
2022-11-29T18:17:12.839Z,101450.65
2022-11-29T18:22:16.101Z,101450.27
2022-11-29T18:27:19.468Z,101447.75
2022-11-29T18:32:22.177Z,101449.67
2022-11-29T18:37:54.518Z,101453.11
2022-11-29T18:42:47.779Z,101457.02
2022-11-29T18:47:50.527Z,101454.96
2022-11-29T18:52:55.692Z,101454.66
2022-11-29T18:57:58.447Z,101454.48
2022-11-29T19:03:01.142Z,101454.58
2022-11-29T19:08:04.019Z,101456.83
2022-11-29T19:13:06.808Z,101456.95
2022-11-29T19:18:09.599Z,101457.08
2022-11-29T19:23:12.537Z,101457.77
2022-11-29T19:28:15.342Z,101459.07
2022-11-29T19:33:18.088Z,101462.71
2022-11-29T19:38:20.815Z,101465.55
2022-11-29T19:43:23.534Z,101470.45
2022-11-29T19:48:26.394Z,101474.43
2022-11-29T19:53:30.482Z,101480.29
2022-11-29T19:58:33.830Z,101484.56
2022-11-29T20:03:37.313Z,101487.61
2022-11-29T20:08:41.376Z,101490.45
2022-11-29T20:13:46.239Z,101486.65
2022-11-29T20:18:51.190Z,101491.05
2022-11-29T20:23:58.246Z,101494.09
2022-11-29T20:29:02.243Z,101493.07
2022-11-29T20:34:06.599Z,101498.72
2022-11-29T20:39:34.415Z,101500.89
2022-11-29T20:44:40.097Z,101501.08
2022-11-29T20:49:43.086Z,101503.67
2022-11-29T20:54:45.991Z,101504.82
2022-11-29T20:59:48.714Z,101504.20
2022-11-29T21:04:51.739Z,101503.09
2022-11-29T21:10:00.739Z,101508.44
2022-11-29T21:15:04.605Z,101511.54
2022-11-29T21:20:08.062Z,101512.52
2022-11-29T21:25:17.864Z,101510.56
2022-11-29T21:30:23.952Z,101518.37
2022-11-29T21:35:26.722Z,101521.19
2022-11-29T21:40:29.524Z,101528.05
2022-11-29T21:45:32.300Z,101527.11
2022-11-29T21:50:35.027Z,101533.74
2022-11-29T21:55:37.763Z,101536.37
2022-11-29T22:00:40.647Z,101536.83
2022-11-29T22:05:43.570Z,101538.48
2022-11-29T22:10:46.704Z,101534.77
2022-11-29T22:15:49.896Z,101537.80
2022-11-29T22:20:52.760Z,101536.86
2022-11-29T22:25:55.490Z,101537.61
2022-11-29T22:31:09.504Z,101536.33
2022-11-29T22:36:13.144Z,101539.20
2022-11-29T22:41:16.784Z,101544.49
2022-11-29T22:46:21.742Z,101543.58
2022-11-29T22:51:25.702Z,101541.96
2022-11-29T22:56:31.361Z,101537.71
2022-11-29T23:01:37.237Z,101541.00
2022-11-29T23:06:45.086Z,101540.73
2022-11-29T23:11:56.352Z,101542.17
2022-11-29T23:16:59.279Z,101545.90
2022-11-29T23:22:02.137Z,101546.23
2022-11-29T23:27:05.197Z,101547.44
2022-11-29T23:32:08.122Z,101541.14
2022-11-29T23:37:10.901Z,101541.45
2022-11-29T23:42:13.560Z,101537.20
2022-11-29T23:47:16.341Z,101537.30
2022-11-29T23:52:19.094Z,101540.64
2022-11-29T23:57:21.804Z,101538.06
